• Join FlightAware (Why Join?)
  • Login
  • US Flag 
11:31AM EST


 

Airport Tracker/Info


-or-


 

Live Flight TrackerFlight Track Log ✈ N770NC ✈ 14-Jun-2013 ✈ KATL - KAGS

Flight Track Log - Related Links

Times and Time Zones

All times are in EDT time to prevent confusion due to time zone crossing. See the N770NC flight status page for this flight to view local times or setup timezone preferences in your user account.

Time Position Orientation Groundspeed Altitude Reporting Facility
EDT Latitude Longitude Course Direction KTS MPH feet Rate Location/Type
09:51PM 33.6331 -84.3781 90° East 375 432 2,200  Level Atlanta Center
09:52PM 33.6125 -84.3008 108° East 292 336 4,500 2,340 Climbing Atlanta Center
09:52PM 33.6000 -84.2667 114° Southeast 264 304 5,300 2,760 Climbing Atlanta TRACON
09:53PM 33.6000 -84.2000 90° East 275 316 7,600 2,340 Climbing Atlanta TRACON
09:54PM 33.6200 -83.9542 92° East  Level FlightAware Approximate
09:54PM 33.6022 -84.1186 88° East 305 351 9,300  Level Atlanta Center
09:55PM 33.6061 -83.8369 90° East  Level Estimated
09:55PM 33.6042 -84.0139 89° East 310 357 11,100  Level Atlanta Center
09:56PM 33.5922 -83.7196 90° East  Level Estimated
09:56PM 33.6042 -83.9167 90° East 316 364 12,300  Level Atlanta Center
09:57PM 33.6019 -83.7919 91° East 350 403 14,200 1,800 Climbing Atlanta Center
09:58PM 33.6078 -83.6672 87° East 370 426 16,000 1,380 Climbing Atlanta Center
09:59PM 33.6136 -83.5325 87° East 385 443 17,000 540 Climbing Atlanta Center
10:00PM 33.6108 -83.3903 91° East 411 473 17,100  Climbing Atlanta Center
10:01PM 33.5997 -83.2508 95° East 422 486 17,100 -60 Level Atlanta Center
10:02PM 33.5925 -83.1111 94° East 422 486 17,000 -480 Descending Atlanta Center
10:03PM 33.5828 -82.9617 94° East 417 480 16,200 -1,500 Descending Atlanta Center
10:04PM 33.5711 -82.8222 96° East 417 480 14,100 -2,160 Descending Atlanta Center
10:05PM 33.5614 -82.6875 95° East 417 480 11,900 -1,800 Descending Atlanta Center
10:06PM 33.5350 -82.5658 105° East 390 449 10,600 -1,080 Descending Atlanta Center
10:07PM 33.5128 -82.4642 105° East 352 405 9,800 -1,320 Descending Atlanta Center
10:08PM 33.4906 -82.3700 106° East 312 359 8,000 -1,800 Descending Atlanta Center
10:09PM 33.4603 -82.2858 113° Southeast 287 330 6,200 -1,680 Descending Atlanta Center
10:10PM 33.4258 -82.2044 117° Southeast 274 315 4,700 -1,260 Descending Atlanta Center
10:11PM 33.3994 -82.1303 113° Southeast 260 299 3,700 -1,020 Descending Atlanta Center